sensor_id;sensor_type;location;lat;lon;timestamp;P1;durP1;ratioP1;P2;durP2;ratioP2
68484;SDS011;55472;50.060;21.960;2024-01-10T00:00:23;69.07;;;24.48;;
68484;SDS011;55472;50.060;21.960;2024-01-10T00:03:09;57.50;;;25.23;;
68484;SDS011;55472;50.060;21.960;2024-01-10T00:05:36;53.40;;;25.63;;
68484;SDS011;55472;50.060;21.960;2024-01-10T00:08:02;62.80;;;28.10;;
68484;SDS011;55472;50.060;21.960;2024-01-10T00:10:29;69.03;;;30.88;;
68484;SDS011;55472;50.060;21.960;2024-01-10T00:12:55;53.30;;;31.83;;
68484;SDS011;55472;50.060;21.960;2024-01-10T00:15:21;65.63;;;28.13;;
68484;SDS011;55472;50.060;21.960;2024-01-10T00:17:50;82.43;;;31.45;;
68484;SDS011;55472;50.060;21.960;2024-01-10T00:20:16;72.97;;;27.02;;
68484;SDS011;55472;50.060;21.960;2024-01-10T00:22:42;74.55;;;28.30;;
68484;SDS011;55472;50.060;21.960;2024-01-10T00:25:08;62.55;;;25.13;;
68484;SDS011;55472;50.060;21.960;2024-01-10T00:27:34;52.40;;;26.80;;
68484;SDS011;55472;50.060;21.960;2024-01-10T00:30:01;44.38;;;22.90;;
68484;SDS011;55472;50.060;21.960;2024-01-10T00:32:27;60.33;;;25.70;;
68484;SDS011;55472;50.060;21.960;2024-01-10T00:34:54;53.78;;;25.40;;
68484;SDS011;55472;50.060;21.960;2024-01-10T00:37:20;46.70;;;20.23;;
68484;SDS011;55472;50.060;21.960;2024-01-10T00:39:46;61.00;;;21.93;;
68484;SDS011;55472;50.060;21.960;2024-01-10T00:42:12;39.08;;;22.33;;
68484;SDS011;55472;50.060;21.960;2024-01-10T00:44:38;79.95;;;27.45;;
68484;SDS011;55472;50.060;21.960;2024-01-10T00:47:04;44.13;;;23.70;;
68484;SDS011;55472;50.060;21.960;2024-01-10T00:49:30;46.80;;;20.87;;
68484;SDS011;55472;50.060;21.960;2024-01-10T00:51:56;55.85;;;23.10;;
68484;SDS011;55472;50.060;21.960;2024-01-10T00:54:23;56.03;;;25.13;;
68484;SDS011;55472;50.060;21.960;2024-01-10T00:56:49;61.47;;;22.25;;
68484;SDS011;55472;50.060;21.960;2024-01-10T00:59:16;45.08;;;21.42;;
68484;SDS011;55472;50.060;21.960;2024-01-10T01:01:42;69.07;;;24.90;;
68484;SDS011;55472;50.060;21.960;2024-01-10T01:04:08;59.53;;;26.33;;
68484;SDS011;55472;50.060;21.960;2024-01-10T01:06:34;71.85;;;29.40;;
68484;SDS011;55472;50.060;21.960;2024-01-10T01:09:00;97.72;;;33.35;;
68484;SDS011;55472;50.060;21.960;2024-01-10T01:11:26;61.60;;;26.87;;
68484;SDS011;55472;50.060;21.960;2024-01-10T01:13:52;70.22;;;30.63;;
68484;SDS011;55472;50.060;21.960;2024-01-10T01:16:19;64.15;;;27.42;;
68484;SDS011;55472;50.060;21.960;2024-01-10T01:18:45;72.82;;;30.98;;
68484;SDS011;55472;50.060;21.960;2024-01-10T01:21:11;89.30;;;31.08;;
68484;SDS011;55472;50.060;21.960;2024-01-10T01:23:37;69.57;;;23.50;;
68484;SDS011;55472;50.060;21.960;2024-01-10T01:26:03;81.43;;;24.85;;
68484;SDS011;55472;50.060;21.960;2024-01-10T01:28:30;50.53;;;26.55;;
68484;SDS011;55472;50.060;21.960;2024-01-10T01:30:57;56.80;;;29.45;;
68484;SDS011;55472;50.060;21.960;2024-01-10T01:33:23;58.47;;;26.52;;
68484;SDS011;55472;50.060;21.960;2024-01-10T01:35:49;58.87;;;26.27;;
68484;SDS011;55472;50.060;21.960;2024-01-10T01:38:15;90.85;;;31.90;;
68484;SDS011;55472;50.060;21.960;2024-01-10T01:40:41;88.25;;;28.00;;
68484;SDS011;55472;50.060;21.960;2024-01-10T01:43:20;115.10;;;34.92;;
68484;SDS011;55472;50.060;21.960;2024-01-10T01:45:51;82.33;;;29.13;;
68484;SDS011;55472;50.060;21.960;2024-01-10T01:48:19;57.88;;;25.50;;
68484;SDS011;55472;50.060;21.960;2024-01-10T01:50:47;49.78;;;25.23;;
68484;SDS011;55472;50.060;21.960;2024-01-10T01:53:17;41.13;;;23.83;;
68484;SDS011;55472;50.060;21.960;2024-01-10T01:55:44;50.50;;;25.77;;
68484;SDS011;55472;50.060;21.960;2024-01-10T01:58:11;58.07;;;26.20;;
68484;SDS011;55472;50.060;21.960;2024-01-10T02:03:04;43.33;;;23.10;;
68484;SDS011;55472;50.060;21.960;2024-01-10T02:05:32;51.05;;;23.05;;
68484;SDS011;55472;50.060;21.960;2024-01-10T02:07:58;46.67;;;21.50;;
68484;SDS011;55472;50.060;21.960;2024-01-10T02:10:24;75.63;;;22.63;;
68484;SDS011;55472;50.060;21.960;2024-01-10T02:12:50;63.20;;;25.88;;
68484;SDS011;55472;50.060;21.960;2024-01-10T02:15:16;40.50;;;22.08;;
68484;SDS011;55472;50.060;21.960;2024-01-10T02:17:43;46.17;;;19.17;;
68484;SDS011;55472;50.060;21.960;2024-01-10T02:20:10;38.88;;;18.63;;
68484;SDS011;55472;50.060;21.960;2024-01-10T02:22:36;57.80;;;17.10;;
68484;SDS011;55472;50.060;21.960;2024-01-10T02:25:09;47.63;;;20.95;;
68484;SDS011;55472;50.060;21.960;2024-01-10T02:27:36;38.83;;;17.73;;
68484;SDS011;55472;50.060;21.960;2024-01-10T02:30:03;38.30;;;16.90;;
68484;SDS011;55472;50.060;21.960;2024-01-10T02:32:31;45.40;;;21.50;;
68484;SDS011;55472;50.060;21.960;2024-01-10T02:34:58;53.03;;;16.97;;
68484;SDS011;55472;50.060;21.960;2024-01-10T02:37:24;26.88;;;16.13;;
68484;SDS011;55472;50.060;21.960;2024-01-10T02:39:50;48.70;;;22.23;;
68484;SDS011;55472;50.060;21.960;2024-01-10T02:42:16;53.65;;;19.73;;
68484;SDS011;55472;50.060;21.960;2024-01-10T02:44:43;37.05;;;19.02;;
68484;SDS011;55472;50.060;21.960;2024-01-10T02:47:10;42.50;;;15.63;;
68484;SDS011;55472;50.060;21.960;2024-01-10T02:49:38;44.50;;;18.88;;
68484;SDS011;55472;50.060;21.960;2024-01-10T02:52:04;36.58;;;16.73;;
68484;SDS011;55472;50.060;21.960;2024-01-10T02:54:31;40.30;;;17.65;;
68484;SDS011;55472;50.060;21.960;2024-01-10T02:56:57;34.05;;;15.73;;
68484;SDS011;55472;50.060;21.960;2024-01-10T02:59:23;57.13;;;24.57;;
68484;SDS011;55472;50.060;21.960;2024-01-10T03:01:49;71.60;;;21.48;;
68484;SDS011;55472;50.060;21.960;2024-01-10T03:04:15;67.43;;;21.77;;
68484;SDS011;55472;50.060;21.960;2024-01-10T03:06:41;35.85;;;18.30;;
68484;SDS011;55472;50.060;21.960;2024-01-10T03:09:08;41.80;;;18.13;;
68484;SDS011;55472;50.060;21.960;2024-01-10T03:11:34;66.80;;;20.15;;
68484;SDS011;55472;50.060;21.960;2024-01-10T03:14:07;38.53;;;18.65;;
68484;SDS011;55472;50.060;21.960;2024-01-10T03:16:34;50.45;;;22.67;;
68484;SDS011;55472;50.060;21.960;2024-01-10T03:19:01;48.92;;;21.33;;
68484;SDS011;55472;50.060;21.960;2024-01-10T03:21:27;36.33;;;17.30;;
68484;SDS011;55472;50.060;21.960;2024-01-10T03:23:55;36.03;;;17.83;;
68484;SDS011;55472;50.060;21.960;2024-01-10T03:26:22;42.70;;;21.58;;
68484;SDS011;55472;50.060;21.960;2024-01-10T03:28:48;57.50;;;18.27;;
68484;SDS011;55472;50.060;21.960;2024-01-10T03:31:16;28.30;;;17.60;;
68484;SDS011;55472;50.060;21.960;2024-01-10T03:33:43;31.73;;;13.73;;
68484;SDS011;55472;50.060;21.960;2024-01-10T03:36:10;32.28;;;17.08;;
68484;SDS011;55472;50.060;21.960;2024-01-10T03:38:39;31.23;;;18.02;;
68484;SDS011;55472;50.060;21.960;2024-01-10T03:41:05;36.55;;;15.88;;
68484;SDS011;55472;50.060;21.960;2024-01-10T03:43:31;55.57;;;20.07;;
68484;SDS011;55472;50.060;21.960;2024-01-10T03:45:58;46.85;;;14.90;;
68484;SDS011;55472;50.060;21.960;2024-01-10T03:48:24;50.83;;;18.02;;
68484;SDS011;55472;50.060;21.960;2024-01-10T03:50:50;42.35;;;15.55;;
68484;SDS011;55472;50.060;21.960;2024-01-10T03:53:17;24.95;;;11.70;;
68484;SDS011;55472;50.060;21.960;2024-01-10T03:55:43;47.23;;;14.83;;
68484;SDS011;55472;50.060;21.960;2024-01-10T03:58:09;42.20;;;16.38;;
68484;SDS011;55472;50.060;21.960;2024-01-10T04:00:35;36.78;;;17.42;;
68484;SDS011;55472;50.060;21.960;2024-01-10T04:03:01;33.83;;;15.82;;
68484;SDS011;55472;50.060;21.960;2024-01-10T04:05:28;51.03;;;17.60;;
68484;SDS011;55472;50.060;21.960;2024-01-10T04:07:55;33.53;;;16.00;;
68484;SDS011;55472;50.060;21.960;2024-01-10T04:10:22;36.03;;;15.05;;
68484;SDS011;55472;50.060;21.960;2024-01-10T04:12:49;44.28;;;17.60;;
68484;SDS011;55472;50.060;21.960;2024-01-10T04:15:15;32.50;;;17.13;;
68484;SDS011;55472;50.060;21.960;2024-01-10T04:17:43;24.58;;;14.60;;
68484;SDS011;55472;50.060;21.960;2024-01-10T04:20:09;55.60;;;23.67;;
68484;SDS011;55472;50.060;21.960;2024-01-10T04:22:36;47.15;;;19.00;;
68484;SDS011;55472;50.060;21.960;2024-01-10T04:25:04;76.47;;;23.38;;
68484;SDS011;55472;50.060;21.960;2024-01-10T04:27:33;54.85;;;26.75;;
68484;SDS011;55472;50.060;21.960;2024-01-10T04:29:59;69.88;;;21.08;;
68484;SDS011;55472;50.060;21.960;2024-01-10T04:32:25;48.23;;;21.73;;
68484;SDS011;55472;50.060;21.960;2024-01-10T04:34:51;78.05;;;23.15;;
68484;SDS011;55472;50.060;21.960;2024-01-10T04:37:17;51.55;;;18.83;;
68484;SDS011;55472;50.060;21.960;2024-01-10T04:39:43;49.72;;;20.98;;
68484;SDS011;55472;50.060;21.960;2024-01-10T04:42:13;65.93;;;32.10;;
68484;SDS011;55472;50.060;21.960;2024-01-10T04:44:39;95.25;;;40.13;;
68484;SDS011;55472;50.060;21.960;2024-01-10T04:47:06;79.57;;;30.35;;
68484;SDS011;55472;50.060;21.960;2024-01-10T04:49:33;51.28;;;20.98;;
68484;SDS011;55472;50.060;21.960;2024-01-10T04:51:59;51.83;;;22.75;;
68484;SDS011;55472;50.060;21.960;2024-01-10T04:54:25;55.73;;;23.17;;
68484;SDS011;55472;50.060;21.960;2024-01-10T04:56:51;35.83;;;18.17;;
68484;SDS011;55472;50.060;21.960;2024-01-10T04:59:17;31.63;;;15.95;;
68484;SDS011;55472;50.060;21.960;2024-01-10T05:01:44;43.13;;;15.45;;
68484;SDS011;55472;50.060;21.960;2024-01-10T05:04:10;57.97;;;21.17;;
68484;SDS011;55472;50.060;21.960;2024-01-10T05:06:36;50.83;;;20.37;;
68484;SDS011;55472;50.060;21.960;2024-01-10T05:09:02;42.05;;;17.52;;
68484;SDS011;55472;50.060;21.960;2024-01-10T05:11:29;32.85;;;16.00;;
68484;SDS011;55472;50.060;21.960;2024-01-10T05:13:56;37.55;;;18.98;;
68484;SDS011;55472;50.060;21.960;2024-01-10T05:16:22;36.20;;;18.02;;
68484;SDS011;55472;50.060;21.960;2024-01-10T05:18:48;33.73;;;19.50;;
68484;SDS011;55472;50.060;21.960;2024-01-10T05:21:14;42.85;;;20.63;;
68484;SDS011;55472;50.060;21.960;2024-01-10T05:23:40;44.10;;;18.70;;
68484;SDS011;55472;50.060;21.960;2024-01-10T05:26:06;38.63;;;14.77;;
68484;SDS011;55472;50.060;21.960;2024-01-10T05:28:32;49.83;;;18.70;;
68484;SDS011;55472;50.060;21.960;2024-01-10T05:30:59;41.60;;;19.13;;
68484;SDS011;55472;50.060;21.960;2024-01-10T05:33:25;26.92;;;15.95;;
68484;SDS011;55472;50.060;21.960;2024-01-10T05:35:51;26.65;;;15.43;;
68484;SDS011;55472;50.060;21.960;2024-01-10T05:38:17;31.00;;;13.13;;
68484;SDS011;55472;50.060;21.960;2024-01-10T05:40:43;30.60;;;16.07;;
68484;SDS011;55472;50.060;21.960;2024-01-10T05:43:09;48.88;;;16.52;;
68484;SDS011;55472;50.060;21.960;2024-01-10T05:45:36;47.45;;;18.85;;
68484;SDS011;55472;50.060;21.960;2024-01-10T05:48:02;38.92;;;19.45;;
68484;SDS011;55472;50.060;21.960;2024-01-10T05:50:29;52.63;;;17.90;;
68484;SDS011;55472;50.060;21.960;2024-01-10T05:52:55;45.22;;;20.80;;
68484;SDS011;55472;50.060;21.960;2024-01-10T05:55:21;39.80;;;19.00;;
68484;SDS011;55472;50.060;21.960;2024-01-10T05:57:48;39.60;;;18.30;;
68484;SDS011;55472;50.060;21.960;2024-01-10T06:00:15;48.72;;;20.50;;
68484;SDS011;55472;50.060;21.960;2024-01-10T06:02:42;43.97;;;18.80;;
68484;SDS011;55472;50.060;21.960;2024-01-10T06:05:09;85.60;;;37.83;;
68484;SDS011;55472;50.060;21.960;2024-01-10T06:07:36;67.70;;;34.50;;
68484;SDS011;55472;50.060;21.960;2024-01-10T06:10:04;65.07;;;33.25;;
68484;SDS011;55472;50.060;21.960;2024-01-10T06:12:31;41.13;;;21.13;;
68484;SDS011;55472;50.060;21.960;2024-01-10T06:14:57;51.57;;;17.03;;
68484;SDS011;55472;50.060;21.960;2024-01-10T06:17:23;58.30;;;20.02;;
68484;SDS011;55472;50.060;21.960;2024-01-10T06:19:50;61.00;;;26.88;;
68484;SDS011;55472;50.060;21.960;2024-01-10T06:22:16;61.53;;;25.48;;
68484;SDS011;55472;50.060;21.960;2024-01-10T06:24:43;29.27;;;16.52;;
68484;SDS011;55472;50.060;21.960;2024-01-10T06:27:10;35.67;;;18.73;;
68484;SDS011;55472;50.060;21.960;2024-01-10T06:29:36;53.25;;;23.80;;
68484;SDS011;55472;50.060;21.960;2024-01-10T06:32:05;60.22;;;23.95;;
68484;SDS011;55472;50.060;21.960;2024-01-10T06:34:32;50.42;;;22.73;;
68484;SDS011;55472;50.060;21.960;2024-01-10T06:36:59;41.00;;;19.02;;
68484;SDS011;55472;50.060;21.960;2024-01-10T06:39:25;65.60;;;22.57;;
68484;SDS011;55472;50.060;21.960;2024-01-10T06:41:52;52.22;;;24.23;;
68484;SDS011;55472;50.060;21.960;2024-01-10T06:44:18;56.40;;;24.05;;
68484;SDS011;55472;50.060;21.960;2024-01-10T06:46:44;48.65;;;20.20;;
68484;SDS011;55472;50.060;21.960;2024-01-10T06:49:11;40.10;;;17.42;;
68484;SDS011;55472;50.060;21.960;2024-01-10T06:51:37;62.37;;;22.07;;
68484;SDS011;55472;50.060;21.960;2024-01-10T06:54:05;50.72;;;23.25;;
68484;SDS011;55472;50.060;21.960;2024-01-10T06:56:31;41.00;;;16.02;;
68484;SDS011;55472;50.060;21.960;2024-01-10T06:58:58;42.20;;;17.52;;
68484;SDS011;55472;50.060;21.960;2024-01-10T07:01:25;29.35;;;14.43;;
68484;SDS011;55472;50.060;21.960;2024-01-10T07:03:53;31.50;;;14.63;;
68484;SDS011;55472;50.060;21.960;2024-01-10T07:06:20;39.28;;;18.27;;
68484;SDS011;55472;50.060;21.960;2024-01-10T07:08:47;37.03;;;15.77;;
68484;SDS011;55472;50.060;21.960;2024-01-10T07:11:18;48.88;;;17.75;;
68484;SDS011;55472;50.060;21.960;2024-01-10T07:13:47;29.75;;;14.23;;
68484;SDS011;55472;50.060;21.960;2024-01-10T07:16:13;19.80;;;11.03;;
68484;SDS011;55472;50.060;21.960;2024-01-10T07:18:42;34.17;;;11.98;;
68484;SDS011;55472;50.060;21.960;2024-01-10T07:21:08;28.88;;;12.85;;
68484;SDS011;55472;50.060;21.960;2024-01-10T07:23:36;21.55;;;10.55;;
68484;SDS011;55472;50.060;21.960;2024-01-10T07:26:05;31.77;;;11.63;;
68484;SDS011;55472;50.060;21.960;2024-01-10T07:28:32;29.30;;;13.45;;
68484;SDS011;55472;50.060;21.960;2024-01-10T07:30:58;39.03;;;19.48;;
68484;SDS011;55472;50.060;21.960;2024-01-10T07:33:28;34.70;;;19.35;;
68484;SDS011;55472;50.060;21.960;2024-01-10T07:36:00;70.50;;;27.00;;
68484;SDS011;55472;50.060;21.960;2024-01-10T07:38:27;72.17;;;27.50;;
68484;SDS011;55472;50.060;21.960;2024-01-10T07:40:53;78.25;;;26.05;;
68484;SDS011;55472;50.060;21.960;2024-01-10T07:43:20;58.65;;;24.45;;
68484;SDS011;55472;50.060;21.960;2024-01-10T07:45:46;72.38;;;27.55;;
68484;SDS011;55472;50.060;21.960;2024-01-10T07:48:12;53.88;;;22.95;;
68484;SDS011;55472;50.060;21.960;2024-01-10T07:50:38;45.03;;;17.80;;
68484;SDS011;55472;50.060;21.960;2024-01-10T07:53:04;55.15;;;19.52;;
68484;SDS011;55472;50.060;21.960;2024-01-10T07:55:30;48.95;;;21.52;;
68484;SDS011;55472;50.060;21.960;2024-01-10T07:57:56;63.20;;;25.30;;
68484;SDS011;55472;50.060;21.960;2024-01-10T08:00:22;27.07;;;12.37;;
68484;SDS011;55472;50.060;21.960;2024-01-10T08:02:49;73.83;;;24.30;;
68484;SDS011;55472;50.060;21.960;2024-01-10T08:05:15;56.33;;;25.42;;
68484;SDS011;55472;50.060;21.960;2024-01-10T08:07:41;49.08;;;22.08;;
68484;SDS011;55472;50.060;21.960;2024-01-10T08:10:08;43.60;;;18.42;;
68484;SDS011;55472;50.060;21.960;2024-01-10T08:12:39;57.80;;;20.10;;
68484;SDS011;55472;50.060;21.960;2024-01-10T08:15:06;34.30;;;15.32;;
68484;SDS011;55472;50.060;21.960;2024-01-10T08:17:33;34.67;;;15.75;;
68484;SDS011;55472;50.060;21.960;2024-01-10T08:20:00;62.58;;;24.48;;
68484;SDS011;55472;50.060;21.960;2024-01-10T08:22:26;33.63;;;17.40;;
68484;SDS011;55472;50.060;21.960;2024-01-10T08:24:52;69.80;;;25.13;;
68484;SDS011;55472;50.060;21.960;2024-01-10T08:27:18;55.55;;;20.92;;
68484;SDS011;55472;50.060;21.960;2024-01-10T08:29:45;56.33;;;25.33;;
68484;SDS011;55472;50.060;21.960;2024-01-10T08:32:11;58.60;;;23.02;;
68484;SDS011;55472;50.060;21.960;2024-01-10T08:34:37;66.03;;;24.05;;
68484;SDS011;55472;50.060;21.960;2024-01-10T08:37:03;57.30;;;21.70;;
68484;SDS011;55472;50.060;21.960;2024-01-10T08:39:30;108.05;;;36.15;;
68484;SDS011;55472;50.060;21.960;2024-01-10T08:41:56;76.47;;;30.50;;
68484;SDS011;55472;50.060;21.960;2024-01-10T08:44:23;90.68;;;31.70;;
68484;SDS011;55472;50.060;21.960;2024-01-10T08:46:49;96.15;;;34.42;;
68484;SDS011;55472;50.060;21.960;2024-01-10T08:49:18;81.20;;;32.03;;
68484;SDS011;55472;50.060;21.960;2024-01-10T08:51:44;143.02;;;47.78;;
68484;SDS011;55472;50.060;21.960;2024-01-10T08:54:11;126.25;;;43.97;;
68484;SDS011;55472;50.060;21.960;2024-01-10T08:56:43;95.60;;;32.78;;
68484;SDS011;55472;50.060;21.960;2024-01-10T08:59:12;122.78;;;35.15;;
68484;SDS011;55472;50.060;21.960;2024-01-10T09:01:38;105.43;;;36.87;;
68484;SDS011;55472;50.060;21.960;2024-01-10T09:04:04;147.95;;;45.92;;
68484;SDS011;55472;50.060;21.960;2024-01-10T09:06:34;143.10;;;46.95;;
68484;SDS011;55472;50.060;21.960;2024-01-10T09:09:01;156.10;;;48.88;;
68484;SDS011;55472;50.060;21.960;2024-01-10T09:11:28;140.60;;;44.38;;
68484;SDS011;55472;50.060;21.960;2024-01-10T09:13:54;185.10;;;58.47;;
68484;SDS011;55472;50.060;21.960;2024-01-10T09:16:20;146.00;;;43.97;;
68484;SDS011;55472;50.060;21.960;2024-01-10T09:18:46;99.88;;;33.67;;
68484;SDS011;55472;50.060;21.960;2024-01-10T09:21:15;85.57;;;28.58;;
68484;SDS011;55472;50.060;21.960;2024-01-10T09:23:44;125.75;;;40.30;;
68484;SDS011;55472;50.060;21.960;2024-01-10T09:26:10;158.13;;;49.00;;
68484;SDS011;55472;50.060;21.960;2024-01-10T09:28:36;115.65;;;36.47;;
68484;SDS011;55472;50.060;21.960;2024-01-10T09:31:02;170.77;;;51.15;;
68484;SDS011;55472;50.060;21.960;2024-01-10T09:33:28;102.32;;;33.70;;
68484;SDS011;55472;50.060;21.960;2024-01-10T09:35:55;129.65;;;45.20;;
68484;SDS011;55472;50.060;21.960;2024-01-10T09:38:20;119.77;;;38.67;;
68484;SDS011;55472;50.060;21.960;2024-01-10T09:40:47;109.88;;;37.22;;
68484;SDS011;55472;50.060;21.960;2024-01-10T09:43:13;110.47;;;37.15;;
68484;SDS011;55472;50.060;21.960;2024-01-10T09:45:43;127.30;;;41.70;;
68484;SDS011;55472;50.060;21.960;2024-01-10T09:48:13;110.63;;;36.27;;
68484;SDS011;55472;50.060;21.960;2024-01-10T09:50:40;106.07;;;33.67;;
68484;SDS011;55472;50.060;21.960;2024-01-10T09:53:07;99.70;;;34.78;;
68484;SDS011;55472;50.060;21.960;2024-01-10T09:55:38;106.72;;;35.47;;
68484;SDS011;55472;50.060;21.960;2024-01-10T09:58:07;107.68;;;34.78;;
68484;SDS011;55472;50.060;21.960;2024-01-10T10:00:35;107.87;;;33.83;;
68484;SDS011;55472;50.060;21.960;2024-01-10T10:03:02;105.68;;;35.45;;
68484;SDS011;55472;50.060;21.960;2024-01-10T10:05:30;110.45;;;37.80;;
68484;SDS011;55472;50.060;21.960;2024-01-10T10:07:59;114.70;;;36.70;;
68484;SDS011;55472;50.060;21.960;2024-01-10T10:10:26;116.30;;;37.88;;
68484;SDS011;55472;50.060;21.960;2024-01-10T10:12:53;97.80;;;32.87;;
68484;SDS011;55472;50.060;21.960;2024-01-10T10:15:20;108.00;;;34.30;;
68484;SDS011;55472;50.060;21.960;2024-01-10T10:17:48;111.68;;;35.17;;
68484;SDS011;55472;50.060;21.960;2024-01-10T10:20:26;96.82;;;30.10;;
68484;SDS011;55472;50.060;21.960;2024-01-10T10:23:07;101.15;;;31.50;;
68484;SDS011;55472;50.060;21.960;2024-01-10T10:25:45;91.47;;;30.87;;
68484;SDS011;55472;50.060;21.960;2024-01-10T10:28:12;89.40;;;30.52;;
68484;SDS011;55472;50.060;21.960;2024-01-10T10:30:39;90.75;;;30.02;;
68484;SDS011;55472;50.060;21.960;2024-01-10T10:33:05;85.45;;;28.52;;
68484;SDS011;55472;50.060;21.960;2024-01-10T10:35:34;81.77;;;25.27;;
68484;SDS011;55472;50.060;21.960;2024-01-10T10:38:00;81.43;;;25.88;;
68484;SDS011;55472;50.060;21.960;2024-01-10T10:40:26;77.55;;;26.13;;
68484;SDS011;55472;50.060;21.960;2024-01-10T10:42:56;93.55;;;27.45;;
68484;SDS011;55472;50.060;21.960;2024-01-10T10:45:22;94.20;;;31.30;;
68484;SDS011;55472;50.060;21.960;2024-01-10T10:47:58;86.90;;;28.70;;
68484;SDS011;55472;50.060;21.960;2024-01-10T10:50:33;87.30;;;27.45;;
68484;SDS011;55472;50.060;21.960;2024-01-10T10:53:04;88.45;;;26.95;;
68484;SDS011;55472;50.060;21.960;2024-01-10T10:55:32;87.03;;;28.45;;
68484;SDS011;55472;50.060;21.960;2024-01-10T10:58:00;96.90;;;31.48;;
68484;SDS011;55472;50.060;21.960;2024-01-10T11:00:30;97.07;;;30.27;;
68484;SDS011;55472;50.060;21.960;2024-01-10T11:02:57;99.15;;;29.63;;
68484;SDS011;55472;50.060;21.960;2024-01-10T11:05:24;93.72;;;30.88;;
68484;SDS011;55472;50.060;21.960;2024-01-10T11:07:51;84.90;;;29.70;;
68484;SDS011;55472;50.060;21.960;2024-01-10T11:10:21;106.78;;;36.13;;
68484;SDS011;55472;50.060;21.960;2024-01-10T11:13:08;95.33;;;31.90;;
68484;SDS011;55472;50.060;21.960;2024-01-10T11:25:02;117.10;;;36.60;;
68484;SDS011;55472;50.060;21.960;2024-01-10T11:27:29;109.07;;;36.33;;
68484;SDS011;55472;50.060;21.960;2024-01-10T11:29:55;113.00;;;37.13;;
68484;SDS011;55472;50.060;21.960;2024-01-10T11:32:25;120.15;;;39.53;;
68484;SDS011;55472;50.060;21.960;2024-01-10T11:34:59;114.85;;;39.55;;
68484;SDS011;55472;50.060;21.960;2024-01-10T11:37:38;116.63;;;39.25;;
68484;SDS011;55472;50.060;21.960;2024-01-10T11:40:08;127.40;;;39.97;;
68484;SDS011;55472;50.060;21.960;2024-01-10T11:42:41;128.98;;;42.25;;
68484;SDS011;55472;50.060;21.960;2024-01-10T11:45:09;143.80;;;46.67;;
68484;SDS011;55472;50.060;21.960;2024-01-10T11:47:38;137.43;;;45.03;;
68484;SDS011;55472;50.060;21.960;2024-01-10T11:50:07;138.50;;;47.28;;
68484;SDS011;55472;50.060;21.960;2024-01-10T11:52:36;146.60;;;46.97;;
68484;SDS011;55472;50.060;21.960;2024-01-10T11:55:02;134.73;;;45.60;;
68484;SDS011;55472;50.060;21.960;2024-01-10T11:57:32;159.93;;;49.70;;
68484;SDS011;55472;50.060;21.960;2024-01-10T11:59:58;158.80;;;51.65;;
68484;SDS011;55472;50.060;21.960;2024-01-10T12:02:26;148.35;;;48.67;;
68484;SDS011;55472;50.060;21.960;2024-01-10T12:04:53;143.77;;;45.60;;
68484;SDS011;55472;50.060;21.960;2024-01-10T12:07:21;126.18;;;41.55;;
68484;SDS011;55472;50.060;21.960;2024-01-10T12:09:48;120.88;;;39.15;;
68484;SDS011;55472;50.060;21.960;2024-01-10T12:12:15;108.60;;;36.15;;
68484;SDS011;55472;50.060;21.960;2024-01-10T12:14:42;115.13;;;36.28;;
68484;SDS011;55472;50.060;21.960;2024-01-10T12:17:11;110.00;;;37.30;;
68484;SDS011;55472;50.060;21.960;2024-01-10T12:19:37;119.57;;;40.15;;
68484;SDS011;55472;50.060;21.960;2024-01-10T12:22:04;118.10;;;38.42;;
68484;SDS011;55472;50.060;21.960;2024-01-10T12:24:31;114.93;;;38.00;;
68484;SDS011;55472;50.060;21.960;2024-01-10T12:26:58;118.10;;;38.08;;
68484;SDS011;55472;50.060;21.960;2024-01-10T12:29:24;114.83;;;38.97;;
68484;SDS011;55472;50.060;21.960;2024-01-10T12:31:51;119.88;;;39.50;;
68484;SDS011;55472;50.060;21.960;2024-01-10T12:34:19;124.72;;;39.65;;
68484;SDS011;55472;50.060;21.960;2024-01-10T12:36:47;129.00;;;40.50;;
68484;SDS011;55472;50.060;21.960;2024-01-10T12:39:13;138.65;;;43.20;;
68484;SDS011;55472;50.060;21.960;2024-01-10T12:41:40;131.83;;;40.87;;
68484;SDS011;55472;50.060;21.960;2024-01-10T12:44:07;127.75;;;40.67;;
68484;SDS011;55472;50.060;21.960;2024-01-10T12:46:33;133.90;;;40.45;;
68484;SDS011;55472;50.060;21.960;2024-01-10T12:51:32;179.68;;;51.95;;
68484;SDS011;55472;50.060;21.960;2024-01-10T12:54:02;172.63;;;51.17;;
68484;SDS011;55472;50.060;21.960;2024-01-10T12:56:32;139.90;;;44.33;;
68484;SDS011;55472;50.060;21.960;2024-01-10T12:58:58;141.50;;;45.63;;
68484;SDS011;55472;50.060;21.960;2024-01-10T13:01:25;136.45;;;45.05;;
68484;SDS011;55472;50.060;21.960;2024-01-10T13:03:51;142.60;;;44.72;;
68484;SDS011;55472;50.060;21.960;2024-01-10T13:06:17;136.43;;;44.10;;
68484;SDS011;55472;50.060;21.960;2024-01-10T13:08:48;135.52;;;42.65;;
68484;SDS011;55472;50.060;21.960;2024-01-10T13:11:14;127.28;;;38.83;;
68484;SDS011;55472;50.060;21.960;2024-01-10T13:13:41;133.10;;;40.15;;
68484;SDS011;55472;50.060;21.960;2024-01-10T13:16:08;120.43;;;38.60;;
68484;SDS011;55472;50.060;21.960;2024-01-10T13:18:38;113.90;;;35.37;;
68484;SDS011;55472;50.060;21.960;2024-01-10T13:21:04;113.68;;;36.03;;
68484;SDS011;55472;50.060;21.960;2024-01-10T13:23:31;110.50;;;35.75;;
68484;SDS011;55472;50.060;21.960;2024-01-10T13:25:58;117.95;;;35.55;;
68484;SDS011;55472;50.060;21.960;2024-01-10T13:28:24;130.52;;;39.83;;
68484;SDS011;55472;50.060;21.960;2024-01-10T13:30:50;132.60;;;41.50;;
68484;SDS011;55472;50.060;21.960;2024-01-10T13:33:18;127.68;;;39.50;;
68484;SDS011;55472;50.060;21.960;2024-01-10T13:35:45;121.85;;;37.05;;
68484;SDS011;55472;50.060;21.960;2024-01-10T13:38:11;116.95;;;36.47;;
68484;SDS011;55472;50.060;21.960;2024-01-10T13:40:37;107.10;;;35.67;;
68484;SDS011;55472;50.060;21.960;2024-01-10T13:43:04;123.43;;;36.70;;
68484;SDS011;55472;50.060;21.960;2024-01-10T13:45:30;117.00;;;37.30;;
68484;SDS011;55472;50.060;21.960;2024-01-10T13:47:56;123.30;;;38.80;;
68484;SDS011;55472;50.060;21.960;2024-01-10T13:50:22;123.88;;;37.55;;
68484;SDS011;55472;50.060;21.960;2024-01-10T13:52:51;111.32;;;38.28;;
68484;SDS011;55472;50.060;21.960;2024-01-10T13:55:16;123.03;;;39.37;;
68484;SDS011;55472;50.060;21.960;2024-01-10T13:57:43;119.18;;;39.45;;
68484;SDS011;55472;50.060;21.960;2024-01-10T14:00:09;131.02;;;39.42;;
68484;SDS011;55472;50.060;21.960;2024-01-10T14:02:43;126.68;;;41.85;;
68484;SDS011;55472;50.060;21.960;2024-01-10T14:05:09;123.25;;;38.67;;
68484;SDS011;55472;50.060;21.960;2024-01-10T14:07:35;134.87;;;39.97;;
68484;SDS011;55472;50.060;21.960;2024-01-10T14:10:04;128.90;;;41.10;;
68484;SDS011;55472;50.060;21.960;2024-01-10T14:12:31;125.25;;;39.00;;
68484;SDS011;55472;50.060;21.960;2024-01-10T14:14:57;133.50;;;39.70;;
68484;SDS011;55472;50.060;21.960;2024-01-10T14:17:25;121.80;;;38.88;;
68484;SDS011;55472;50.060;21.960;2024-01-10T14:19:51;121.30;;;37.50;;